| Date | Time | Temp. (oF) | Dew Point (oF) | Rel. Hum. (%) | Press. (in.) | Wind Dir. (deg.) | Wind Speed (mph) | Hourly Rainfall (i n.) |
|
|---|---|---|---|---|---|---|---|---|---|
| 1 | 11/15 | 24:00 | 46 | 24 | 43 | 29.91 | 350 | 9 | 0.00 |
| 2 | 11/14 | 23:00 | 47 | 25 | 43 | 29.90 | 310 | 7 | 0.00 |
| 3 | 11/14 | 22:00 | 48 | 27 | 44 | 29.91 | 190 | 10 | 0.00 |
| 4 | 11/14 | 21:00 | 49 | 30 | 49 | 29.90 | 270 | 12 | 0.00 |
| 5 | 11/14 | 20:00 | 51 | 28 | 42 | 29.86 | 290 | 13 | 0.00 |
| 6 | 11/14 | 19:00 | 54 | 31 | 43 | 29.86 | 330 | 7 | 0.00 |
| 7 | 11/14 | 18:00 | 56 | 31 | 39 | 29.81 | 280 | 15 | 0.00 |
| 8 | 11/14 | 17:00 | 59 | 38 | 47 | 29.79 | 280 | 13 | 0.00 |
| 9 | 11/14 | 16:00 | 61 | 49 | 67 | 29.76 | 270 | 0 | 0.00 |
| 10 | 11/14 | 15:00 | 61 | 50 | 68 | 29.76 | 290 | 4 | 0.00 |
| 11 | 11/14 | 14:00 | 61 | 50 | 68 | 29.76 | 20 | 2 | 0.00 |
| 12 | 11/14 | 13:00 | 59 | 48 | 68 | 29.77 | 320 | 2 | 0.00 |
| 13 | 11/14 | 12:00 | 61 | 49 | 65 | 29.77 | 310 | 0 | 0.00 |
| 14 | 11/14 | 11:00 | 59 | 48 | 69 | 29.81 | 140 | 2 | 0.00 |
| 15 | 11/14 | 10:00 | 57 | 47 | 71 | 29.83 | 110 | 4 | 0.00 |
| 16 | 11/14 | 09:00 | 52 | 47 | 84 | 29.85 | 150 | 2 | 0.00 |
| 17 | 11/14 | 08:00 | 49 | 45 | 88 | 29.87 | 150 | 2 | 0.00 |
| 18 | 11/14 | 07:00 | 48 | 45 | 91 | 29.91 | 310 | 10 | 0.00 |
| 19 | 11/14 | 06:00 | 48 | 44 | 89 | 29.94 | 150 | 4 | 0.00 |
| 20 | 11/14 | 05:00 | 48 | 44 | 89 | 29.96 | 130 | 2 | 0.00 |
| 21 | 11/14 | 04:00 | 47 | 41 | 81 | 29.98 | 290 | 1 | 0.00 |
| 22 | 11/14 | 03:00 | 45 | 40 | 83 | 30.01 | 300 | 0 | 0.00 |
| 23 | 11/14 | 02:00 | 44 | 38 | 81 | 30.04 | 300 | 0 | 0.00 |
| 24 | 11/14 | 01:00 | 44 | 38 | 81 | 30.07 | 300 | 0 | 0.00 |